Time;durP1;ratioP1;P1;durP2;ratioP2;P2;SDS_P1;SDS_P2;PMS_P1;PMS_P2;Temp;Humidity;BMP_temperature;BMP_pressure;BME280_temperature;BME280_humidity;BME280_pressure;Samples;Min_cycle;Max_cycle;Signal;HPM_P1;HPM_P2
2021/12/30 00:02:04;;;;;;;29.67;18.98;;;;;;;;;;5111939;27;20031;-62
2021/12/30 00:04:51;;;;;;;25.27;19.17;;;;;;;;;;5114833;27;20028;-62
2021/12/30 00:07:17;;;;;;;30.38;17.13;;;;;;;;;;5108814;27;20396;-62
2021/12/30 00:09:42;;;;;;;15.40;12.65;;;;;;;;;;5106540;27;20062;-62
2021/12/30 00:12:08;;;;;;;14.20;11.43;;;;;;;;;;5111603;27;20436;-62
2021/12/30 00:14:33;;;;;;;18.25;10.05;;;;;;;;;;5109048;27;20050;-62
2021/12/30 00:16:58;;;;;;;24.70;15.23;;;;;;;;;;5109329;27;20240;-61
2021/12/30 00:19:23;;;;;;;23.35;15.77;;;;;;;;;;5112852;27;20062;-62
2021/12/30 00:21:49;;;;;;;17.48;14.48;;;;;;;;;;5108546;27;20062;-62
2021/12/30 00:24:14;;;;;;;23.75;18.05;;;;;;;;;;5111731;27;20015;-61
2021/12/30 00:26:41;;;;;;;23.45;16.38;;;;;;;;;;5112200;27;20062;-62
2021/12/30 00:29:06;;;;;;;31.40;17.70;;;;;;;;;;5107609;28;20019;-62
2021/12/30 00:31:31;;;;;;;18.20;15.30;;;;;;;;;;5112044;28;20452;-62
2021/12/30 00:33:57;;;;;;;24.25;15.25;;;;;;;;;;5110869;28;20023;-62
2021/12/30 00:36:22;;;;;;;14.80;13.30;;;;;;;;;;5113788;28;20334;-62
2021/12/30 00:38:47;;;;;;;18.38;14.05;;;;;;;;;;5106668;28;20396;-62
2021/12/30 00:41:13;;;;;;;21.83;15.05;;;;;;;;;;5111043;28;20106;-62
2021/12/30 00:43:39;;;;;;;16.35;12.95;;;;;;;;;;5114553;27;20027;-62
2021/12/30 00:46:05;;;;;;;16.23;13.40;;;;;;;;;;5117216;27;20057;-62
2021/12/30 00:48:30;;;;;;;21.70;12.20;;;;;;;;;;5113675;27;20028;-62
2021/12/30 00:50:55;;;;;;;16.95;11.05;;;;;;;;;;5115035;27;20034;-62
2021/12/30 00:53:20;;;;;;;15.85;10.38;;;;;;;;;;5118355;27;20051;-62
2021/12/30 00:55:46;;;;;;;21.15;11.93;;;;;;;;;;5116428;27;20023;-62
2021/12/30 00:58:12;;;;;;;12.00;8.13;;;;;;;;;;5118465;27;20027;-62
2021/12/30 01:00:39;;;;;;;10.85;8.23;;;;;;;;;;5117804;27;20027;-62
2021/12/30 01:03:04;;;;;;;9.52;6.18;;;;;;;;;;5118009;27;20055;-62
2021/12/30 01:05:30;;;;;;;8.75;4.97;;;;;;;;;;5114008;27;20039;-61
2021/12/30 01:07:56;;;;;;;8.88;8.00;;;;;;;;;;5116199;27;20748;-62
2021/12/30 01:10:23;;;;;;;9.82;8.15;;;;;;;;;;5116491;27;20031;-62
2021/12/30 01:12:49;;;;;;;8.05;6.63;;;;;;;;;;5117138;27;20022;-62
2021/12/30 01:15:17;;;;;;;11.43;8.40;;;;;;;;;;5117394;27;20403;-62
2021/12/30 01:18:19;;;;;;;11.73;8.18;;;;;;;;;;5117335;27;20464;-62
2021/12/30 01:20:40;;;;;;;18.70;10.38;;;;;;;;;;5116442;27;20058;-62
2021/12/30 01:23:06;;;;;;;10.18;7.30;;;;;;;;;;5115675;27;20433;-62
2021/12/30 01:25:31;;;;;;;12.88;8.02;;;;;;;;;;5114679;27;20027;-62
2021/12/30 01:27:56;;;;;;;11.25;7.55;;;;;;;;;;5116115;27;20058;-62
2021/12/30 01:30:22;;;;;;;15.13;9.32;;;;;;;;;;5115434;27;20024;-62
2021/12/30 01:32:47;;;;;;;10.88;9.88;;;;;;;;;;5095361;27;20867;-62
2021/12/30 01:35:15;;;;;;;7.22;5.82;;;;;;;;;;5114809;27;20023;-62
2021/12/30 01:37:40;;;;;;;12.95;7.03;;;;;;;;;;5115862;27;20524;-62
2021/12/30 01:40:11;;;;;;;6.45;4.70;;;;;;;;;;5112719;27;20031;-62
2021/12/30 01:42:37;;;;;;;8.10;4.57;;;;;;;;;;5118468;27;20231;-62
2021/12/30 01:45:03;;;;;;;5.38;3.97;;;;;;;;;;5117212;27;20506;-62
2021/12/30 01:47:28;;;;;;;3.70;2.70;;;;;;;;;;5116672;27;20099;-62
2021/12/30 01:49:54;;;;;;;5.18;4.10;;;;;;;;;;5111710;27;20539;-62
2021/12/30 01:52:19;;;;;;;5.70;4.15;;;;;;;;;;5112088;27;20119;-62
2021/12/30 01:54:45;;;;;;;21.67;17.10;;;;;;;;;;5114185;27;20012;-62
2021/12/30 01:57:10;;;;;;;7.28;5.40;;;;;;;;;;5098627;27;20924;-62
2021/12/30 01:59:36;;;;;;;6.55;5.05;;;;;;;;;;5112160;27;20053;-62
2021/12/30 02:02:01;;;;;;;9.27;5.22;;;;;;;;;;5113675;27;20023;-61
2021/12/30 02:04:27;;;;;;;6.80;5.03;;;;;;;;;;5115557;27;20035;-62
2021/12/30 02:06:53;;;;;;;10.38;5.30;;;;;;;;;;5114522;27;20735;-62
2021/12/30 02:09:20;;;;;;;5.72;4.22;;;;;;;;;;5117278;27;20027;-62
2021/12/30 02:11:45;;;;;;;7.45;3.05;;;;;;;;;;5114669;27;20023;-62
2021/12/30 02:14:11;;;;;;;4.78;3.33;;;;;;;;;;5115356;27;20098;-62
2021/12/30 02:16:37;;;;;;;11.00;4.28;;;;;;;;;;5112680;27;20098;-62
2021/12/30 02:19:02;;;;;;;10.35;3.70;;;;;;;;;;5116047;27;20023;-62
2021/12/30 02:21:28;;;;;;;9.80;4.57;;;;;;;;;;5116469;27;20573;-62
2021/12/30 02:23:53;;;;;;;6.25;3.97;;;;;;;;;;5112893;27;20029;-62
2021/12/30 02:26:19;;;;;;;7.10;5.72;;;;;;;;;;5113862;27;20035;-62
2021/12/30 02:28:44;;;;;;;13.80;9.27;;;;;;;;;;5117022;27;20030;-62
2021/12/30 02:31:12;;;;;;;13.30;11.15;;;;;;;;;;5114751;27;20023;-62
2021/12/30 02:33:38;;;;;;;12.20;9.77;;;;;;;;;;5113718;27;20113;-62
2021/12/30 02:36:04;;;;;;;15.15;8.90;;;;;;;;;;5115295;27;20038;-62
2021/12/30 02:38:29;;;;;;;15.90;11.82;;;;;;;;;;5098448;27;20023;-62
2021/12/30 02:40:56;;;;;;;14.13;10.20;;;;;;;;;;5117109;27;20154;-62
2021/12/30 02:43:23;;;;;;;30.88;13.73;;;;;;;;;;5113408;27;20029;-62
2021/12/30 02:45:49;;;;;;;18.42;12.48;;;;;;;;;;5114847;27;20496;-62
2021/12/30 02:48:19;;;;;;;32.33;18.70;;;;;;;;;;5117875;27;20168;-61
2021/12/30 02:50:45;;;;;;;17.63;12.00;;;;;;;;;;5113880;27;20105;-62
2021/12/30 02:53:11;;;;;;;12.02;9.95;;;;;;;;;;5113836;27;20019;-62
2021/12/30 02:55:37;;;;;;;19.35;11.63;;;;;;;;;;5112048;27;20026;-62
2021/12/30 02:58:02;;;;;;;16.90;11.20;;;;;;;;;;5115826;27;20033;-62
2021/12/30 03:00:28;;;;;;;21.40;12.25;;;;;;;;;;5115342;27;20026;-62
2021/12/30 03:02:53;;;;;;;12.82;10.32;;;;;;;;;;5112158;27;20046;-62
2021/12/30 03:05:20;;;;;;;10.85;7.32;;;;;;;;;;5117057;27;20100;-62
2021/12/30 03:07:46;;;;;;;13.88;7.05;;;;;;;;;;5115947;27;20027;-62
2021/12/30 03:10:16;;;;;;;12.70;4.55;;;;;;;;;;5115214;27;20525;-62
2021/12/30 03:12:42;;;;;;;10.20;5.82;;;;;;;;;;5113759;27;20078;-62
2021/12/30 03:15:10;;;;;;;13.50;8.38;;;;;;;;;;5113214;27;20435;-62
2021/12/30 03:17:37;;;;;;;26.50;13.25;;;;;;;;;;5116527;27;20012;-62
2021/12/30 03:20:03;;;;;;;30.92;16.48;;;;;;;;;;5116889;27;20027;-62
2021/12/30 03:22:28;;;;;;;23.27;15.25;;;;;;;;;;5112766;27;20051;-62
2021/12/30 03:24:54;;;;;;;18.77;12.45;;;;;;;;;;5117891;27;20045;-62
2021/12/30 03:27:19;;;;;;;28.33;12.23;;;;;;;;;;5115828;27;20050;-62
2021/12/30 03:29:44;;;;;;;20.42;10.18;;;;;;;;;;5114338;27;20023;-62
2021/12/30 03:32:10;;;;;;;11.65;9.77;;;;;;;;;;5115268;27;20185;-62
2021/12/30 03:34:35;;;;;;;12.75;10.05;;;;;;;;;;5099780;27;20211;-62
2021/12/30 03:37:00;;;;;;;11.02;8.52;;;;;;;;;;5118674;27;20014;-62
2021/12/30 03:39:26;;;;;;;13.93;8.93;;;;;;;;;;5115609;27;20027;-62
2021/12/30 03:41:51;;;;;;;29.40;13.40;;;;;;;;;;5097645;27;20476;-62
2021/12/30 03:44:16;;;;;;;26.33;14.65;;;;;;;;;;5115349;27;20027;-62
2021/12/30 03:46:41;;;;;;;15.80;11.45;;;;;;;;;;5114514;27;20023;-62
2021/12/30 03:49:07;;;;;;;13.98;9.18;;;;;;;;;;5117569;27;20023;-62
2021/12/30 03:51:38;;;;;;;14.57;8.25;;;;;;;;;;5113254;27;20045;-62
2021/12/30 03:54:04;;;;;;;14.25;8.68;;;;;;;;;;5118111;27;20020;-62
2021/12/30 03:56:30;;;;;;;10.40;7.97;;;;;;;;;;5112324;27;20072;-62
2021/12/30 03:58:56;;;;;;;22.85;11.30;;;;;;;;;;5113596;27;20116;-62
2021/12/30 04:01:22;;;;;;;18.30;10.70;;;;;;;;;;5113377;27;20023;-62
2021/12/30 04:03:48;;;;;;;26.08;17.13;;;;;;;;;;5114687;27;20015;-62
2021/12/30 04:06:13;;;;;;;15.43;10.63;;;;;;;;;;5112198;27;20369;-62
2021/12/30 04:08:39;;;;;;;22.50;9.25;;;;;;;;;;5112804;27;20092;-62
2021/12/30 04:11:04;;;;;;;14.70;7.32;;;;;;;;;;5115833;27;20015;-62
2021/12/30 04:13:31;;;;;;;11.20;7.03;;;;;;;;;;5113137;27;20824;-62
2021/12/30 04:15:57;;;;;;;8.55;5.22;;;;;;;;;;5114274;27;20023;-62
2021/12/30 04:18:22;;;;;;;13.07;5.78;;;;;;;;;;5111236;27;20033;-62
2021/12/30 04:20:48;;;;;;;16.50;13.20;;;;;;;;;;5114850;27;20019;-62
2021/12/30 04:23:13;;;;;;;23.85;11.48;;;;;;;;;;5099661;28;20042;-62
2021/12/30 04:25:39;;;;;;;20.17;14.32;;;;;;;;;;5118022;27;20116;-62
2021/12/30 04:28:04;;;;;;;16.50;13.55;;;;;;;;;;5095734;28;20400;-62
2021/12/30 04:30:30;;;;;;;29.95;15.57;;;;;;;;;;5112406;27;20031;-62
2021/12/30 04:32:55;;;;;;;23.23;17.23;;;;;;;;;;5112681;28;20095;-62
2021/12/30 04:35:20;;;;;;;14.18;11.98;;;;;;;;;;5114372;28;20015;-62
2021/12/30 04:37:45;;;;;;;12.18;9.60;;;;;;;;;;5112555;28;20368;-62
2021/12/30 04:40:12;;;;;;;18.90;8.70;;;;;;;;;;5111511;28;20020;-62
2021/12/30 04:42:37;;;;;;;10.57;7.78;;;;;;;;;;5112778;28;20027;-62
2021/12/30 04:45:04;;;;;;;10.88;6.70;;;;;;;;;;5116411;28;20079;-62
2021/12/30 04:47:29;;;;;;;10.18;6.78;;;;;;;;;;5111578;28;20066;-62
2021/12/30 04:49:57;;;;;;;9.77;6.18;;;;;;;;;;5113568;28;20555;-62
2021/12/30 04:52:22;;;;;;;11.60;6.43;;;;;;;;;;5110094;28;20117;-62
2021/12/30 04:54:49;;;;;;;16.83;6.65;;;;;;;;;;5096076;28;20119;-62
2021/12/30 04:57:14;;;;;;;13.77;7.22;;;;;;;;;;5110993;28;20034;-62
2021/12/30 04:59:39;;;;;;;13.95;7.88;;;;;;;;;;5115097;28;20026;-62
2021/12/30 05:02:05;;;;;;;11.18;8.52;;;;;;;;;;5114340;28;20452;-63
2021/12/30 05:04:30;;;;;;;21.83;9.88;;;;;;;;;;5114202;28;20436;-63
2021/12/30 05:06:55;;;;;;;14.80;10.60;;;;;;;;;;5112886;28;20027;-63
2021/12/30 05:09:21;;;;;;;14.60;10.20;;;;;;;;;;5114923;28;20023;-63
2021/12/30 05:11:46;;;;;;;26.80;16.15;;;;;;;;;;5113233;28;20475;-63
2021/12/30 05:14:12;;;;;;;32.45;14.68;;;;;;;;;;5112978;28;20790;-63
2021/12/30 05:16:38;;;;;;;16.63;10.70;;;;;;;;;;5112568;28;20161;-63
2021/12/30 05:19:03;;;;;;;23.00;12.75;;;;;;;;;;5115280;28;20027;-63
2021/12/30 05:21:28;;;;;;;14.18;8.38;;;;;;;;;;5112671;28;20051;-63
2021/12/30 05:23:54;;;;;;;22.92;9.65;;;;;;;;;;5114721;28;20020;-63
2021/12/30 05:26:19;;;;;;;19.77;9.68;;;;;;;;;;5115604;28;20049;-63
2021/12/30 05:28:45;;;;;;;50.33;18.35;;;;;;;;;;5117135;27;20031;-63
2021/12/30 05:31:11;;;;;;;54.35;27.08;;;;;;;;;;5116564;27;20055;-63
2021/12/30 05:33:36;;;;;;;53.55;26.75;;;;;;;;;;5115661;27;20034;-63
2021/12/30 05:36:01;;;;;;;29.85;13.38;;;;;;;;;;5116077;27;20792;-63
2021/12/30 05:38:27;;;;;;;21.92;9.13;;;;;;;;;;5118048;27;20023;-62
2021/12/30 05:40:52;;;;;;;17.15;10.32;;;;;;;;;;5118259;27;20068;-62
2021/12/30 05:43:17;;;;;;;13.77;7.55;;;;;;;;;;5115190;27;20634;-62
2021/12/30 05:45:43;;;;;;;17.92;8.93;;;;;;;;;;5117879;27;20023;-62
2021/12/30 05:48:08;;;;;;;22.27;12.63;;;;;;;;;;5115711;27;20032;-63
2021/12/30 05:50:34;;;;;;;20.80;10.75;;;;;;;;;;5116317;27;20027;-61
2021/12/30 05:53:00;;;;;;;18.92;10.45;;;;;;;;;;5116505;27;20027;-61
2021/12/30 05:55:25;;;;;;;19.40;8.48;;;;;;;;;;5118179;27;20098;-61
2021/12/30 05:57:52;;;;;;;19.88;13.40;;;;;;;;;;5115435;27;20029;-60
2021/12/30 06:00:18;;;;;;;31.40;16.35;;;;;;;;;;5115584;27;20465;-61
2021/12/30 06:02:44;;;;;;;26.10;14.55;;;;;;;;;;5114061;27;20032;-61
2021/12/30 06:05:10;;;;;;;27.75;17.02;;;;;;;;;;5116922;27;20519;-61
2021/12/30 06:07:35;;;;;;;30.88;22.55;;;;;;;;;;5118167;27;20472;-61
2021/12/30 06:10:01;;;;;;;55.85;33.03;;;;;;;;;;5115579;27;20081;-61
2021/12/30 06:12:26;;;;;;;44.38;31.08;;;;;;;;;;5116313;27;20540;-61
2021/12/30 06:14:52;;;;;;;40.03;25.60;;;;;;;;;;5115338;27;20610;-61
2021/12/30 06:17:17;;;;;;;47.05;22.50;;;;;;;;;;5115852;27;20038;-61
2021/12/30 06:19:43;;;;;;;26.95;18.13;;;;;;;;;;5114663;27;20402;-60
2021/12/30 06:22:09;;;;;;;14.07;12.02;;;;;;;;;;5117777;27;20066;-61
2021/12/30 06:24:34;;;;;;;17.13;12.05;;;;;;;;;;5113009;27;20089;-61
2021/12/30 06:26:59;;;;;;;17.33;10.65;;;;;;;;;;5115725;27;20029;-61
2021/12/30 06:29:24;;;;;;;13.57;10.07;;;;;;;;;;5115363;27;20024;-60
2021/12/30 06:31:50;;;;;;;9.82;7.03;;;;;;;;;;5113456;27;20028;-61
2021/12/30 06:34:15;;;;;;;15.07;6.85;;;;;;;;;;5114305;27;20113;-61
2021/12/30 06:36:41;;;;;;;12.18;7.82;;;;;;;;;;5117139;27;20012;-61
2021/12/30 06:39:06;;;;;;;6.82;5.85;;;;;;;;;;5117217;27;20456;-61
2021/12/30 06:41:32;;;;;;;15.75;7.78;;;;;;;;;;5117444;27;20422;-61
2021/12/30 06:43:57;;;;;;;11.85;6.38;;;;;;;;;;5113992;27;20019;-61
2021/12/30 06:46:23;;;;;;;10.80;9.70;;;;;;;;;;5112956;27;20091;-60
2021/12/30 06:48:49;;;;;;;15.35;6.65;;;;;;;;;;5113948;27;20316;-60
2021/12/30 06:51:17;;;;;;;13.00;7.05;;;;;;;;;;5099335;27;20516;-60
2021/12/30 06:53:43;;;;;;;15.35;6.18;;;;;;;;;;5117428;27;20027;-60
2021/12/30 06:56:08;;;;;;;23.92;21.70;;;;;;;;;;5113940;27;20076;-61
2021/12/30 06:58:34;;;;;;;13.50;7.68;;;;;;;;;;5116959;27;20028;-61
2021/12/30 07:01:00;;;;;;;30.27;12.38;;;;;;;;;;5117859;27;20105;-61
2021/12/30 07:03:25;;;;;;;24.73;15.60;;;;;;;;;;5118749;27;20031;-61
2021/12/30 07:05:54;;;;;;;25.65;13.95;;;;;;;;;;5115680;27;20727;-61
2021/12/30 07:08:20;;;;;;;27.40;16.23;;;;;;;;;;5099119;27;20075;-61
2021/12/30 07:10:45;;;;;;;27.65;16.33;;;;;;;;;;5114294;27;20058;-61
2021/12/30 07:13:11;;;;;;;21.35;16.98;;;;;;;;;;5115301;27;20037;-61
2021/12/30 07:15:36;;;;;;;27.27;14.65;;;;;;;;;;5115932;27;20027;-61
2021/12/30 07:18:01;;;;;;;16.63;10.98;;;;;;;;;;5111478;27;20026;-61
2021/12/30 07:20:27;;;;;;;24.27;11.45;;;;;;;;;;5118316;27;20059;-61
2021/12/30 07:22:52;;;;;;;13.75;10.23;;;;;;;;;;5114057;27;20043;-61
2021/12/30 07:25:17;;;;;;;12.98;9.43;;;;;;;;;;5115392;27;20019;-61
2021/12/30 07:27:44;;;;;;;18.73;10.07;;;;;;;;;;5115576;27;20420;-61
2021/12/30 07:30:09;;;;;;;21.70;12.05;;;;;;;;;;5113883;27;20051;-61
2021/12/30 07:32:35;;;;;;;18.85;8.80;;;;;;;;;;5114823;27;20460;-61
2021/12/30 07:35:00;;;;;;;10.25;8.52;;;;;;;;;;5116948;27;20019;-61
2021/12/30 07:37:25;;;;;;;11.50;7.85;;;;;;;;;;5116031;27;20015;-61
2021/12/30 07:39:51;;;;;;;12.90;9.23;;;;;;;;;;5114516;27;20094;-61
2021/12/30 07:42:16;;;;;;;11.93;8.77;;;;;;;;;;5118801;27;20019;-61
2021/12/30 07:44:41;;;;;;;8.73;7.35;;;;;;;;;;5113283;27;20369;-61
2021/12/30 07:47:07;;;;;;;17.95;6.88;;;;;;;;;;5112580;27;20127;-61
2021/12/30 07:49:35;;;;;;;6.05;5.47;;;;;;;;;;5111763;27;20027;-60
2021/12/30 07:52:00;;;;;;;9.27;5.95;;;;;;;;;;5115951;27;20037;-60
2021/12/30 07:54:26;;;;;;;17.17;7.60;;;;;;;;;;5110974;27;20019;-61
2021/12/30 07:56:51;;;;;;;7.35;4.95;;;;;;;;;;5111749;27;20107;-61
2021/12/30 07:59:16;;;;;;;8.35;5.47;;;;;;;;;;5112290;27;20123;-61
2021/12/30 08:01:42;;;;;;;11.40;7.30;;;;;;;;;;5112116;27;20024;-60
2021/12/30 08:04:07;;;;;;;23.83;5.72;;;;;;;;;;5116507;27;20051;-61
2021/12/30 08:06:33;;;;;;;23.27;6.18;;;;;;;;;;5111008;27;20085;-61
2021/12/30 08:08:59;;;;;;;8.88;4.38;;;;;;;;;;5115123;27;20503;-61
2021/12/30 08:11:24;;;;;;;23.60;17.38;;;;;;;;;;5113718;27;20032;-61
2021/12/30 08:13:49;;;;;;;20.75;15.55;;;;;;;;;;5113555;27;20554;-61
2021/12/30 08:16:14;;;;;;;28.00;24.67;;;;;;;;;;5112218;27;20539;-61
2021/12/30 08:18:40;;;;;;;30.45;26.25;;;;;;;;;;5118316;27;20104;-61
2021/12/30 08:21:06;;;;;;;47.75;32.95;;;;;;;;;;5114602;28;20071;-61
2021/12/30 08:23:31;;;;;;;46.83;40.88;;;;;;;;;;5112630;27;20545;-61
2021/12/30 08:25:56;;;;;;;53.58;48.50;;;;;;;;;;5112506;27;20023;-61
2021/12/30 08:28:22;;;;;;;557.65;418.67;;;;;;;;;;5112907;27;20582;-61
2021/12/30 08:30:47;;;;;;;541.05;424.67;;;;;;;;;;5117215;27;20027;-61
2021/12/30 08:33:13;;;;;;;356.23;257.55;;;;;;;;;;5115224;27;20019;-60
2021/12/30 08:35:38;;;;;;;329.33;233.10;;;;;;;;;;5115024;28;20478;-61
2021/12/30 08:38:03;;;;;;;350.73;253.60;;;;;;;;;;5115049;28;20072;-61
2021/12/30 08:40:30;;;;;;;380.20;263.33;;;;;;;;;;5108813;28;20023;-61
2021/12/30 08:42:55;;;;;;;304.35;213.07;;;;;;;;;;5112439;28;20079;-61
2021/12/30 08:45:20;;;;;;;205.88;160.95;;;;;;;;;;5113224;28;20019;-60
2021/12/30 08:47:46;;;;;;;180.65;125.72;;;;;;;;;;5112443;28;20683;-60
2021/12/30 08:50:13;;;;;;;167.95;116.20;;;;;;;;;;5114679;28;20031;-61
2021/12/30 08:52:39;;;;;;;133.82;113.18;;;;;;;;;;5113389;28;20038;-61
2021/12/30 08:55:05;;;;;;;146.80;110.45;;;;;;;;;;5114876;28;20019;-63
2021/12/30 08:57:30;;;;;;;148.30;102.95;;;;;;;;;;5117895;28;20034;-61
2021/12/30 08:59:56;;;;;;;128.23;96.53;;;;;;;;;;5111593;28;20023;-61
2021/12/30 09:02:21;;;;;;;115.18;93.45;;;;;;;;;;5112860;28;20107;-61
2021/12/30 09:04:47;;;;;;;120.55;100.43;;;;;;;;;;5111864;27;20026;-61
2021/12/30 09:07:14;;;;;;;121.00;85.65;;;;;;;;;;5112816;27;20035;-61
2021/12/30 09:09:40;;;;;;;124.93;84.40;;;;;;;;;;5116807;27;20078;-60
2021/12/30 09:12:06;;;;;;;123.20;90.60;;;;;;;;;;5116944;27;20019;-60
2021/12/30 09:14:31;;;;;;;147.73;106.75;;;;;;;;;;5118081;27;20027;-60
2021/12/30 09:16:56;;;;;;;140.32;113.88;;;;;;;;;;5121239;27;20414;-60
2021/12/30 09:19:22;;;;;;;127.68;88.35;;;;;;;;;;5113681;27;20023;-60
2021/12/30 09:21:47;;;;;;;97.00;73.05;;;;;;;;;;5115112;27;20050;-60
2021/12/30 09:24:12;;;;;;;81.20;60.65;;;;;;;;;;5117661;27;20047;-60
2021/12/30 09:26:38;;;;;;;62.92;50.65;;;;;;;;;;5120197;27;20079;-60
2021/12/30 09:29:10;;;;;;;65.78;50.63;;;;;;;;;;5114316;27;20023;-60
2021/12/30 09:31:46;;;;;;;75.63;56.40;;;;;;;;;;5116715;27;20027;-60
2021/12/30 09:34:12;;;;;;;65.22;51.97;;;;;;;;;;5118528;27;20106;-60
2021/12/30 09:36:37;;;;;;;99.82;69.80;;;;;;;;;;5114549;27;20110;-60
2021/12/30 09:39:04;;;;;;;102.80;74.85;;;;;;;;;;5117089;27;20019;-60
2021/12/30 09:41:30;;;;;;;131.07;92.60;;;;;;;;;;5114229;27;20019;-60
2021/12/30 09:43:55;;;;;;;110.85;80.45;;;;;;;;;;5116101;27;20027;-61
2021/12/30 09:46:21;;;;;;;114.40;80.95;;;;;;;;;;5114706;27;20016;-61
2021/12/30 09:48:48;;;;;;;109.97;79.93;;;;;;;;;;5098680;27;20031;-61
2021/12/30 09:51:13;;;;;;;108.85;68.35;;;;;;;;;;5117141;27;20019;-61
2021/12/30 09:53:38;;;;;;;101.30;71.05;;;;;;;;;;5118811;27;20480;-61
2021/12/30 09:56:04;;;;;;;111.10;70.90;;;;;;;;;;5117199;27;20098;-61
2021/12/30 09:58:30;;;;;;;98.63;67.65;;;;;;;;;;5115812;27;20026;-61
2021/12/30 10:00:56;;;;;;;97.95;64.97;;;;;;;;;;5117601;27;20027;-61
2021/12/30 10:03:21;;;;;;;76.55;58.60;;;;;;;;;;5114383;27;20563;-61
2021/12/30 10:05:48;;;;;;;89.90;66.38;;;;;;;;;;5116083;27;20030;-62
2021/12/30 10:08:15;;;;;;;79.38;66.68;;;;;;;;;;5113695;27;20023;-62
2021/12/30 10:10:43;;;;;;;114.75;68.95;;;;;;;;;;5092628;27;20047;-62
2021/12/30 10:13:27;;;;;;;144.93;81.05;;;;;;;;;;5116082;27;20066;-61
2021/12/30 10:15:55;;;;;;;137.45;76.00;;;;;;;;;;5115497;27;20535;-61
2021/12/30 10:18:22;;;;;;;103.57;62.78;;;;;;;;;;5112997;27;20023;-60
2021/12/30 10:20:48;;;;;;;121.10;70.95;;;;;;;;;;5113546;27;20074;-59
2021/12/30 10:23:22;;;;;;;75.13;53.97;;;;;;;;;;5115008;27;20535;-58
2021/12/30 10:25:52;;;;;;;66.97;41.08;;;;;;;;;;5118010;27;20373;-58
2021/12/30 10:28:24;;;;;;;43.80;30.83;;;;;;;;;;5113258;27;20570;-59
2021/12/30 10:30:49;;;;;;;;;;;;;;;;;;5111491;27;20027;-59
2021/12/30 10:33:19;;;;;;;49.10;40.08;;;;;;;;;;5113543;27;19911;-59
2021/12/30 10:35:44;;;;;;;53.72;42.53;;;;;;;;;;5117602;27;20492;-58
2021/12/30 10:38:11;;;;;;;30.95;27.88;;;;;;;;;;5111475;27;20026;-62
2021/12/30 10:40:38;;;;;;;25.17;21.27;;;;;;;;;;5121341;27;20046;-58
2021/12/30 10:44:05;;;;;;;13.57;10.82;;;;;;;;;;5112186;27;20028;-58
2021/12/30 10:46:11;;;;;;;11.98;7.47;;;;;;;;;;5106978;27;20088;-52
2021/12/30 10:48:46;;;;;;;28.67;14.40;;;;;;;;;;5099204;27;20019;-62
2021/12/30 10:51:11;;;;;;;18.15;10.65;;;;;;;;;;5118020;27;20078;-52
2021/12/30 10:53:37;;;;;;;23.17;14.45;;;;;;;;;;5115828;27;20904;-65
2021/12/30 10:56:18;;;;;;;16.42;14.18;;;;;;;;;;5115622;27;20028;-58
2021/12/30 10:58:44;;;;;;;15.05;10.85;;;;;;;;;;5113635;27;20030;-65
2021/12/30 11:01:16;;;;;;;36.50;12.20;;;;;;;;;;5115931;27;20023;-64
2021/12/30 11:03:42;;;;;;;26.38;16.65;;;;;;;;;;5117164;27;20696;-56
2021/12/30 11:06:17;;;;;;;52.55;21.90;;;;;;;;;;5115086;27;20027;-56
2021/12/30 11:08:42;;;;;;;16.10;14.15;;;;;;;;;;5111419;27;20496;-51
2021/12/30 11:11:24;;;;;;;20.65;15.05;;;;;;;;;;5117899;27;20083;-52
2021/12/30 11:13:56;;;;;;;16.55;14.70;;;;;;;;;;5115880;27;20431;-55
2021/12/30 11:16:22;;;;;;;16.88;12.88;;;;;;;;;;5113001;27;20016;-55
2021/12/30 11:18:47;;;;;;;14.68;13.18;;;;;;;;;;5113739;27;20023;-53
2021/12/30 11:21:32;;;;;;;20.55;14.48;;;;;;;;;;5112751;27;20047;-52
2021/12/30 11:23:58;;;;;;;22.88;15.60;;;;;;;;;;5116304;27;20023;-57
2021/12/30 11:26:23;;;;;;;15.00;12.95;;;;;;;;;;5116751;27;20088;-60
2021/12/30 11:28:48;;;;;;;20.08;13.30;;;;;;;;;;5113066;27;20029;-56
2021/12/30 11:31:14;;;;;;;20.20;11.00;;;;;;;;;;5115407;27;20067;-55
2021/12/30 11:33:39;;;;;;;24.15;8.88;;;;;;;;;;5111827;27;20011;-56
2021/12/30 11:36:04;;;;;;;15.27;9.10;;;;;;;;;;5112126;27;20022;-57
2021/12/30 11:38:30;;;;;;;6.72;5.78;;;;;;;;;;5111894;27;20022;-59
2021/12/30 11:40:55;;;;;;;8.63;6.22;;;;;;;;;;5117317;27;20617;-59
2021/12/30 11:43:21;;;;;;;6.75;4.57;;;;;;;;;;5113839;27;20038;-59
2021/12/30 11:45:46;;;;;;;11.65;5.53;;;;;;;;;;5111158;27;20658;-60
2021/12/30 11:48:20;;;;;;;6.18;4.38;;;;;;;;;;5110738;27;20510;-61
2021/12/30 11:50:46;;;;;;;6.43;5.68;;;;;;;;;;5113486;27;20030;-62
2021/12/30 11:53:29;;;;;;;7.10;4.32;;;;;;;;;;5112867;27;20411;-59
2021/12/30 11:56:22;;;;;;;21.27;7.07;;;;;;;;;;5118290;27;20024;-57
2021/12/30 11:58:52;;;;;;;10.48;4.47;;;;;;;;;;5108759;27;20066;-59
2021/12/30 12:01:27;;;;;;;6.55;2.83;;;;;;;;;;5116046;27;20139;-58
2021/12/30 12:03:53;;;;;;;5.05;3.10;;;;;;;;;;5111958;27;20023;-58
2021/12/30 12:06:24;;;;;;;3.88;3.20;;;;;;;;;;5115386;27;20104;-59
2021/12/30 12:08:50;;;;;;;4.60;2.67;;;;;;;;;;5108647;27;20019;-58
2021/12/30 12:11:17;;;;;;;3.83;2.38;;;;;;;;;;5112774;27;20019;-57
2021/12/30 12:13:46;;;;;;;6.72;3.47;;;;;;;;;;5112958;27;20023;-57
2021/12/30 12:16:15;;;;;;;7.93;3.53;;;;;;;;;;5112690;27;20107;-58
2021/12/30 12:18:59;;;;;;;5.95;3.92;;;;;;;;;;5119948;27;20104;-59
2021/12/30 12:21:38;;;;;;;2.75;1.88;;;;;;;;;;5114080;27;20043;-59
2021/12/30 12:24:25;;;;;;;2.95;2.17;;;;;;;;;;5118105;27;20098;-58
2021/12/30 12:26:58;;;;;;;5.80;3.35;;;;;;;;;;5114546;27;20134;-58
2021/12/30 12:29:29;;;;;;;9.25;3.35;;;;;;;;;;5113436;27;20076;-58
2021/12/30 12:31:57;;;;;;;6.90;4.03;;;;;;;;;;5113577;27;20031;-57
2021/12/30 12:34:36;;;;;;;6.68;3.00;;;;;;;;;;5111661;27;20020;-57
2021/12/30 12:37:02;;;;;;;5.97;3.15;;;;;;;;;;5114887;28;20023;-58
2021/12/30 12:39:35;;;;;;;5.85;5.13;;;;;;;;;;5113699;27;20034;-58
2021/12/30 12:42:00;;;;;;;15.82;5.93;;;;;;;;;;5119811;27;20107;-57
2021/12/30 12:44:29;;;;;;;11.57;5.93;;;;;;;;;;5122943;27;20430;-58
2021/12/30 12:46:55;;;;;;;7.95;5.55;;;;;;;;;;5119208;27;20187;-58
2021/12/30 12:49:32;;;;;;;7.90;4.95;;;;;;;;;;5116628;27;20019;-60
2021/12/30 12:51:58;;;;;;;6.82;4.75;;;;;;;;;;5119845;27;20035;-54
2021/12/30 12:54:32;;;;;;;6.45;5.40;;;;;;;;;;5126504;27;20104;-55
2021/12/30 12:57:07;;;;;;;6.18;5.40;;;;;;;;;;5122761;27;20019;-56
2021/12/30 12:59:34;;;;;;;10.48;4.80;;;;;;;;;;5121047;27;20057;-55
2021/12/30 13:02:00;;;;;;;10.18;4.25;;;;;;;;;;5117115;27;20455;-55
2021/12/30 13:04:25;;;;;;;5.72;4.57;;;;;;;;;;5119306;27;20035;-56
2021/12/30 13:06:51;;;;;;;20.05;5.80;;;;;;;;;;5120394;27;20476;-55
2021/12/30 13:09:17;;;;;;;7.45;5.38;;;;;;;;;;5119884;27;20019;-55
2021/12/30 13:11:45;;;;;;;18.88;7.82;;;;;;;;;;5119470;27;20050;-54
2021/12/30 13:14:13;;;;;;;9.32;5.05;;;;;;;;;;5116417;27;20087;-54
2021/12/30 13:16:40;;;;;;;6.15;4.53;;;;;;;;;;5117200;27;20023;-54
2021/12/30 13:19:13;;;;;;;12.02;5.90;;;;;;;;;;5119474;27;20020;-54
2021/12/30 13:21:38;;;;;;;10.77;4.53;;;;;;;;;;5114972;27;20051;-55
2021/12/30 13:24:04;;;;;;;10.15;4.78;;;;;;;;;;5115602;27;20023;-53
2021/12/30 13:26:35;;;;;;;19.63;7.15;;;;;;;;;;5120009;27;20016;-53
2021/12/30 13:29:01;;;;;;;20.10;10.38;;;;;;;;;;5118375;27;20019;-56
2021/12/30 13:31:31;;;;;;;18.83;7.22;;;;;;;;;;5118356;27;20784;-53
2021/12/30 13:33:57;;;;;;;4.78;3.72;;;;;;;;;;5117855;27;20024;-54
2021/12/30 13:36:23;;;;;;;5.90;5.20;;;;;;;;;;5123057;27;20026;-52
2021/12/30 13:38:49;;;;;;;3.22;2.22;;;;;;;;;;5121914;27;20391;-53
2021/12/30 13:41:15;;;;;;;6.97;4.43;;;;;;;;;;5116931;27;20534;-51
2021/12/30 13:43:41;;;;;;;6.20;3.58;;;;;;;;;;5119995;27;20216;-52
2021/12/30 13:46:07;;;;;;;5.47;3.63;;;;;;;;;;5119924;27;20599;-57
2021/12/30 13:48:34;;;;;;;12.90;8.90;;;;;;;;;;5117683;27;20084;-56
2021/12/30 13:51:04;;;;;;;11.75;8.07;;;;;;;;;;5118231;27;20109;-54
2021/12/30 13:53:30;;;;;;;5.83;4.60;;;;;;;;;;5114347;27;20016;-56
2021/12/30 13:55:58;;;;;;;51.13;45.47;;;;;;;;;;5114889;27;20020;-52
2021/12/30 13:58:25;;;;;;;21.05;9.70;;;;;;;;;;5115220;27;20110;-56
2021/12/30 14:00:52;;;;;;;17.20;11.23;;;;;;;;;;5115334;27;20034;-55
2021/12/30 14:03:20;;;;;;;9.40;5.40;;;;;;;;;;5116327;27;20035;-57
2021/12/30 14:05:48;;;;;;;12.50;3.95;;;;;;;;;;5117520;27;20016;-57
2021/12/30 14:08:14;;;;;;;4.90;3.28;;;;;;;;;;5113748;27;20019;-57
2021/12/30 14:10:48;;;;;;;9.75;5.63;;;;;;;;;;5114830;27;20073;-57
2021/12/30 14:13:14;;;;;;;5.72;4.22;;;;;;;;;;5114939;27;20131;-57
2021/12/30 14:15:40;;;;;;;6.35;3.72;;;;;;;;;;5119733;27;20527;-56
2021/12/30 14:18:09;;;;;;;6.68;2.55;;;;;;;;;;5117145;27;20020;-52
2021/12/30 14:20:38;;;;;;;4.90;4.40;;;;;;;;;;5113296;27;20018;-55
2021/12/30 14:23:04;;;;;;;17.70;6.82;;;;;;;;;;5119926;27;20592;-52